DLH1TN EDDF-EDDH
Flight info
| Callsign | DLH1TN |
|---|---|
| Flight time | 0h 43m |
| Altitude | 29000 |
| Route | MARUN8M/25C MARUN Y150 TOLGI DCT SAS/N0409F280 P605 DUDCA/N0366F200 P605 NOLGO NOLG6A |
| Aircraft | A20N/M-SDE2E3FGILORWXYZ/HB1 |
Departure
| Time | 2026-05-05 12:21 |
|---|---|
| Airport | Frankfurt Main Airport (EDDF) |
Arrival
| Time | 2026-05-05 13:04 |
|---|---|
| Airport | Hamburg Helmut Schmidt Airport (EDDH) |
| Time | Latitude | Longitude | Altitude | Speed | Heading |
|---|---|---|---|---|---|
| 2026-05-05 11:26 | 50.04473 | 8.56477 | 371 ft | 0 kts | 159° |
| 2026-05-05 12:05 | 50.04486 | 8.56471 | 371 ft | 2 kts | 162° |
| 2026-05-05 12:05 | 50.04500 | 8.56462 | 371 ft | 2 kts | 158° |
| 2026-05-05 12:05 | 50.04514 | 8.56454 | 371 ft | 2 kts | 159° |
| 2026-05-05 12:06 | 50.04528 | 8.56446 | 371 ft | 2 kts | 159° |
| 2026-05-05 12:06 | 50.04542 | 8.56440 | 371 ft | 2 kts | 182° |
| 2026-05-05 12:06 | 50.04557 | 8.56444 | 371 ft | 2 kts | 201° |
| 2026-05-05 12:06 | 50.04570 | 8.56455 | 371 ft | 2 kts | 207° |
| 2026-05-05 12:07 | 50.04576 | 8.56459 | 371 ft | 0 kts | 204° |
| 2026-05-05 12:12 | 50.04573 | 8.56455 | 371 ft | 0 kts | 219° |
| 2026-05-05 12:12 | 50.04556 | 8.56442 | 371 ft | 4 kts | 207° |
| 2026-05-05 12:13 | 50.04524 | 8.56409 | 371 ft | 5 kts | 237° |
| 2026-05-05 12:13 | 50.04510 | 8.56364 | 371 ft | 3 kts | 250° |
| 2026-05-05 12:13 | 50.04500 | 8.56321 | 371 ft | 4 kts | 250° |
| 2026-05-05 12:13 | 50.04487 | 8.56264 | 371 ft | 6 kts | 250° |
| 2026-05-05 12:14 | 50.04462 | 8.56162 | 371 ft | 13 kts | 250° |
| 2026-05-05 12:14 | 50.04411 | 8.56040 | 371 ft | 13 kts | 200° |
| 2026-05-05 12:14 | 50.04331 | 8.56061 | 371 ft | 9 kts | 156° |
| 2026-05-05 12:14 | 50.04293 | 8.56146 | 371 ft | 10 kts | 101° |
| 2026-05-05 12:15 | 50.04248 | 8.56236 | 371 ft | 11 kts | 158° |
| 2026-05-05 12:15 | 50.04171 | 8.56282 | 371 ft | 12 kts | 145° |
| 2026-05-05 12:15 | 50.04158 | 8.56402 | 371 ft | 12 kts | 77° |
| 2026-05-05 12:15 | 50.04187 | 8.56531 | 371 ft | 12 kts | 70° |
| 2026-05-05 12:16 | 50.04219 | 8.56665 | 371 ft | 13 kts | 70° |
| 2026-05-05 12:16 | 50.04253 | 8.56806 | 371 ft | 14 kts | 70° |
| 2026-05-05 12:16 | 50.04288 | 8.56950 | 371 ft | 14 kts | 69° |
| 2026-05-05 12:16 | 50.04326 | 8.57104 | 371 ft | 15 kts | 69° |
| 2026-05-05 12:17 | 50.04364 | 8.57268 | 371 ft | 16 kts | 70° |
| 2026-05-05 12:17 | 50.04405 | 8.57443 | 371 ft | 17 kts | 70° |
| 2026-05-05 12:17 | 50.04424 | 8.57589 | 371 ft | 10 kts | 103° |
| 2026-05-05 12:17 | 50.04386 | 8.57656 | 371 ft | 4 kts | 156° |
| 2026-05-05 12:18 | 50.04381 | 8.57659 | 371 ft | 0 kts | 158° |
| 2026-05-05 12:18 | 50.04380 | 8.57659 | 371 ft | 0 kts | 158° |
| 2026-05-05 12:18 | 50.04370 | 8.57666 | 371 ft | 3 kts | 158° |
| 2026-05-05 12:18 | 50.04336 | 8.57688 | 371 ft | 6 kts | 158° |
| 2026-05-05 12:19 | 50.04288 | 8.57697 | 371 ft | 7 kts | 207° |
| 2026-05-05 12:19 | 50.04271 | 8.57670 | 371 ft | 0 kts | 242° |
| 2026-05-05 12:20 | 50.04201 | 8.57412 | 371 ft | 71 kts | 249° |
| 2026-05-05 12:21 | 50.03919 | 8.56261 | 383 ft | 152 kts | 247° |
| 2026-05-05 12:21 | 50.03536 | 8.54637 | 1095 ft | 166 kts | 249° |
| 2026-05-05 12:21 | 50.03159 | 8.52977 | 2154 ft | 166 kts | 249° |
| 2026-05-05 12:21 | 50.02758 | 8.51299 | 3002 ft | 176 kts | 245° |
| 2026-05-05 12:22 | 50.01992 | 8.49782 | 3709 ft | 189 kts | 212° |
| 2026-05-05 12:22 | 50.00751 | 8.49062 | 4477 ft | 202 kts | 197° |
| 2026-05-05 12:22 | 49.99367 | 8.48494 | 5342 ft | 211 kts | 198° |
| 2026-05-05 12:22 | 49.97977 | 8.47904 | 6354 ft | 212 kts | 198° |
| 2026-05-05 12:23 | 49.96571 | 8.47302 | 7359 ft | 212 kts | 198° |
| 2026-05-05 12:23 | 49.95161 | 8.46678 | 8205 ft | 219 kts | 200° |
| 2026-05-05 12:23 | 49.93642 | 8.45969 | 8814 ft | 237 kts | 204° |
| 2026-05-05 12:23 | 49.92212 | 8.44582 | 9343 ft | 254 kts | 230° |
| 2026-05-05 12:24 | 49.91299 | 8.42278 | 10337 ft | 254 kts | 252° |
| 2026-05-05 12:24 | 49.91034 | 8.39638 | 11354 ft | 256 kts | 272° |
| 2026-05-05 12:24 | 49.91427 | 8.36975 | 12098 ft | 261 kts | 293° |
| 2026-05-05 12:24 | 49.92500 | 8.34592 | 12606 ft | 280 kts | 312° |
| 2026-05-05 12:25 | 49.94082 | 8.32902 | 13176 ft | 303 kts | 332° |
| 2026-05-05 12:25 | 49.96202 | 8.32052 | 13724 ft | 328 kts | 347° |
| 2026-05-05 12:25 | 49.98490 | 8.31346 | 14223 ft | 342 kts | 338° |
| 2026-05-05 12:25 | 50.00760 | 8.30109 | 14892 ft | 352 kts | 334° |
| 2026-05-05 12:26 | 50.03080 | 8.28901 | 15759 ft | 360 kts | 342° |
| 2026-05-05 12:26 | 50.05590 | 8.28546 | 16617 ft | 373 kts | 357° |
| 2026-05-05 12:26 | 50.08186 | 8.29316 | 17460 ft | 385 kts | 11° |
| 2026-05-05 12:26 | 50.10717 | 8.30614 | 18251 ft | 391 kts | 13° |
| 2026-05-05 12:27 | 50.13297 | 8.32032 | 18993 ft | 396 kts | 13° |
| 2026-05-05 12:27 | 50.15875 | 8.33444 | 19717 ft | 400 kts | 13° |
| 2026-05-05 12:27 | 50.18520 | 8.34870 | 20448 ft | 404 kts | 12° |
| 2026-05-05 12:27 | 50.21169 | 8.36280 | 21161 ft | 408 kts | 12° |
| 2026-05-05 12:28 | 50.23855 | 8.37700 | 21865 ft | 412 kts | 11° |
| 2026-05-05 12:28 | 50.26604 | 8.39149 | 22567 ft | 416 kts | 11° |
| 2026-05-05 12:28 | 50.29344 | 8.40594 | 23246 ft | 420 kts | 11° |
| 2026-05-05 12:28 | 50.32086 | 8.42066 | 23908 ft | 424 kts | 11° |
| 2026-05-05 12:29 | 50.34904 | 8.43598 | 24558 ft | 428 kts | 11° |
| 2026-05-05 12:29 | 50.37716 | 8.45136 | 25180 ft | 432 kts | 11° |
| 2026-05-05 12:29 | 50.40541 | 8.46683 | 25783 ft | 435 kts | 11° |
| 2026-05-05 12:29 | 50.43387 | 8.48242 | 26368 ft | 439 kts | 10° |
| 2026-05-05 12:30 | 50.46261 | 8.49816 | 26938 ft | 442 kts | 9° |
| 2026-05-05 12:30 | 50.49205 | 8.51312 | 27495 ft | 442 kts | 8° |
| 2026-05-05 12:30 | 50.52145 | 8.52717 | 28022 ft | 445 kts | 7° |
| 2026-05-05 12:30 | 50.55111 | 8.54118 | 28517 ft | 447 kts | 7° |
| 2026-05-05 12:31 | 50.58076 | 8.55523 | 28790 ft | 450 kts | 7° |
| 2026-05-05 12:31 | 50.61079 | 8.56957 | 28818 ft | 449 kts | 7° |
| 2026-05-05 12:31 | 50.67013 | 8.59817 | 28830 ft | 449 kts | 7° |
| 2026-05-05 12:32 | 50.72996 | 8.62706 | 28837 ft | 448 kts | 7° |
| 2026-05-05 12:32 | 50.78975 | 8.65802 | 28832 ft | 456 kts | 15° |
| 2026-05-05 12:33 | 50.81727 | 8.68225 | 28836 ft | 464 kts | 26° |
| 2026-05-05 12:33 | 50.84238 | 8.71555 | 28838 ft | 475 kts | 38° |
| 2026-05-05 12:33 | 50.88318 | 8.79728 | 28843 ft | 472 kts | 47° |
| 2026-05-05 12:34 | 50.92165 | 8.88080 | 28844 ft | 471 kts | 46° |
| 2026-05-05 12:34 | 50.96096 | 8.96356 | 28845 ft | 470 kts | 45° |
| 2026-05-05 12:35 | 51.00029 | 9.04608 | 28845 ft | 471 kts | 45° |
| 2026-05-05 12:35 | 51.03984 | 9.12946 | 28845 ft | 470 kts | 45° |
| 2026-05-05 12:36 | 51.07884 | 9.21202 | 28845 ft | 471 kts | 45° |
| 2026-05-05 12:36 | 51.10001 | 9.25109 | 28836 ft | 461 kts | 33° |
| 2026-05-05 12:36 | 51.12588 | 9.28066 | 28842 ft | 452 kts | 17° |
| 2026-05-05 12:37 | 51.15482 | 9.29830 | 28844 ft | 439 kts | 3° |
| 2026-05-05 12:37 | 51.18440 | 9.30864 | 28850 ft | 442 kts | 0° |
| 2026-05-05 12:37 | 51.24484 | 9.32744 | 28846 ft | 445 kts | 0° |
| 2026-05-05 12:38 | 51.30551 | 9.34797 | 28846 ft | 446 kts | 1° |
| 2026-05-05 12:38 | 51.36565 | 9.36873 | 28846 ft | 446 kts | 1° |
| 2026-05-05 12:39 | 51.42647 | 9.38988 | 28846 ft | 446 kts | 1° |
| 2026-05-05 12:39 | 51.48676 | 9.41097 | 28846 ft | 446 kts | 1° |
| 2026-05-05 12:40 | 51.54737 | 9.43225 | 28846 ft | 446 kts | 1° |
| 2026-05-05 12:40 | 51.60766 | 9.45350 | 28846 ft | 446 kts | 1° |
| 2026-05-05 12:41 | 51.66799 | 9.47485 | 28846 ft | 446 kts | 1° |
| 2026-05-05 12:41 | 51.72859 | 9.49639 | 28846 ft | 446 kts | 1° |
| 2026-05-05 12:42 | 51.78884 | 9.51810 | 28845 ft | 448 kts | 3° |
| 2026-05-05 12:42 | 51.84828 | 9.54950 | 28846 ft | 454 kts | 12° |
| 2026-05-05 12:43 | 51.90551 | 9.59386 | 28851 ft | 459 kts | 17° |
| 2026-05-05 12:43 | 51.96237 | 9.64163 | 28864 ft | 459 kts | 17° |
| 2026-05-05 12:44 | 52.01899 | 9.68927 | 28879 ft | 458 kts | 18° |
| 2026-05-05 12:44 | 52.07541 | 9.73661 | 28893 ft | 458 kts | 17° |
| 2026-05-05 12:45 | 52.13133 | 9.78337 | 28898 ft | 457 kts | 17° |
| 2026-05-05 12:45 | 52.18789 | 9.83071 | 28900 ft | 457 kts | 17° |
| 2026-05-05 12:46 | 52.24512 | 9.87595 | 28900 ft | 451 kts | 12° |
| 2026-05-05 12:46 | 52.27421 | 9.89343 | 28886 ft | 440 kts | 7° |
| 2026-05-05 12:46 | 52.30281 | 9.90743 | 28452 ft | 417 kts | 4° |
| 2026-05-05 12:47 | 52.33012 | 9.91950 | 27240 ft | 414 kts | 4° |
| 2026-05-05 12:47 | 52.35797 | 9.93118 | 25439 ft | 425 kts | 5° |
| 2026-05-05 12:47 | 52.38631 | 9.94312 | 23876 ft | 427 kts | 6° |
| 2026-05-05 12:47 | 52.41475 | 9.95542 | 22415 ft | 424 kts | 7° |
| 2026-05-05 12:48 | 52.44325 | 9.96794 | 21358 ft | 430 kts | 8° |
| 2026-05-05 12:48 | 52.47198 | 9.98069 | 20547 ft | 430 kts | 8° |
| 2026-05-05 12:48 | 52.50052 | 9.99350 | 20298 ft | 415 kts | 8° |
| 2026-05-05 12:48 | 52.52764 | 10.00576 | 20127 ft | 400 kts | 8° |
| 2026-05-05 12:49 | 52.55440 | 10.01768 | 19916 ft | 398 kts | 8° |
| 2026-05-05 12:49 | 52.58133 | 10.02957 | 19907 ft | 400 kts | 8° |
| 2026-05-05 12:49 | 52.60812 | 10.04145 | 19905 ft | 400 kts | 8° |
| 2026-05-05 12:49 | 52.63463 | 10.05328 | 19879 ft | 397 kts | 8° |
| 2026-05-05 12:50 | 52.66134 | 10.06287 | 19457 ft | 384 kts | 356° |
| 2026-05-05 12:50 | 52.68692 | 10.05809 | 18798 ft | 367 kts | 338° |
| 2026-05-05 12:50 | 52.71125 | 10.04660 | 18219 ft | 364 kts | 337° |
| 2026-05-05 12:50 | 52.73556 | 10.03498 | 17623 ft | 363 kts | 337° |
| 2026-05-05 12:51 | 52.75985 | 10.02362 | 17048 ft | 361 kts | 338° |
| 2026-05-05 12:51 | 52.78372 | 10.01254 | 16486 ft | 358 kts | 338° |
| 2026-05-05 12:51 | 52.80766 | 10.00144 | 15923 ft | 356 kts | 338° |
| 2026-05-05 12:51 | 52.83152 | 9.99036 | 15362 ft | 354 kts | 339° |
| 2026-05-05 12:52 | 52.85514 | 9.97938 | 14996 ft | 351 kts | 339° |
| 2026-05-05 12:52 | 52.87854 | 9.96850 | 14920 ft | 352 kts | 339° |
| 2026-05-05 12:52 | 52.90234 | 9.95742 | 14913 ft | 353 kts | 339° |
| 2026-05-05 12:52 | 52.92575 | 9.94652 | 14912 ft | 353 kts | 339° |
| 2026-05-05 12:53 | 52.94950 | 9.93543 | 14912 ft | 353 kts | 339° |
| 2026-05-05 12:53 | 52.97292 | 9.92448 | 14912 ft | 353 kts | 339° |
| 2026-05-05 12:53 | 52.99615 | 9.91366 | 14909 ft | 336 kts | 339° |
| 2026-05-05 12:53 | 53.01796 | 9.90353 | 14906 ft | 319 kts | 339° |
| 2026-05-05 12:54 | 53.06009 | 9.88365 | 13799 ft | 325 kts | 339° |
| 2026-05-05 12:54 | 53.08223 | 9.87303 | 12926 ft | 337 kts | 340° |
| 2026-05-05 12:54 | 53.10502 | 9.86218 | 12107 ft | 345 kts | 341° |
| 2026-05-05 12:55 | 53.12808 | 9.85136 | 11520 ft | 345 kts | 341° |
| 2026-05-05 12:55 | 53.15099 | 9.84067 | 10973 ft | 343 kts | 342° |
| 2026-05-05 12:55 | 53.17406 | 9.82987 | 10418 ft | 342 kts | 342° |
| 2026-05-05 12:55 | 53.19685 | 9.81914 | 9866 ft | 341 kts | 342° |
| 2026-05-05 12:56 | 53.21957 | 9.80844 | 9343 ft | 339 kts | 342° |
| 2026-05-05 12:56 | 53.24195 | 9.79786 | 8846 ft | 336 kts | 343° |
| 2026-05-05 12:56 | 53.26419 | 9.78730 | 8436 ft | 330 kts | 343° |
| 2026-05-05 12:56 | 53.28617 | 9.77686 | 8004 ft | 326 kts | 343° |
| 2026-05-05 12:57 | 53.30735 | 9.76682 | 7720 ft | 306 kts | 344° |
| 2026-05-05 12:57 | 53.32755 | 9.75722 | 7425 ft | 299 kts | 344° |
| 2026-05-05 12:57 | 53.34718 | 9.74781 | 7070 ft | 295 kts | 345° |
| 2026-05-05 12:57 | 53.36688 | 9.73846 | 6669 ft | 293 kts | 344° |
| 2026-05-05 12:58 | 53.38656 | 9.72906 | 6355 ft | 287 kts | 344° |
| 2026-05-05 12:58 | 53.40523 | 9.72007 | 6072 ft | 271 kts | 344° |
| 2026-05-05 12:58 | 53.42279 | 9.71160 | 5672 ft | 258 kts | 345° |
| 2026-05-05 12:58 | 53.43985 | 9.70347 | 5270 ft | 253 kts | 345° |
| 2026-05-05 12:59 | 53.45651 | 9.69556 | 4876 ft | 251 kts | 347° |
| 2026-05-05 12:59 | 53.47354 | 9.69378 | 4451 ft | 242 kts | 13° |
| 2026-05-05 12:59 | 53.48825 | 9.70486 | 4048 ft | 225 kts | 41° |
| 2026-05-05 13:00 | 53.50878 | 9.74085 | 3421 ft | 202 kts | 53° |
| 2026-05-05 13:00 | 53.51752 | 9.75855 | 3155 ft | 192 kts | 53° |
| 2026-05-05 13:01 | 53.54102 | 9.80677 | 2542 ft | 171 kts | 52° |
| 2026-05-05 13:01 | 53.54848 | 9.82200 | 2285 ft | 170 kts | 53° |
| 2026-05-05 13:01 | 53.55597 | 9.83726 | 2061 ft | 168 kts | 52° |
| 2026-05-05 13:01 | 53.56337 | 9.85230 | 1821 ft | 168 kts | 52° |
| 2026-05-05 13:02 | 53.57078 | 9.86736 | 1584 ft | 162 kts | 52° |
| 2026-05-05 13:02 | 53.57768 | 9.88133 | 1354 ft | 147 kts | 52° |
| 2026-05-05 13:02 | 53.58378 | 9.89374 | 1159 ft | 132 kts | 51° |
| 2026-05-05 13:02 | 53.58955 | 9.90542 | 984 ft | 127 kts | 53° |
| 2026-05-05 13:03 | 53.59517 | 9.91684 | 843 ft | 127 kts | 52° |
| 2026-05-05 13:03 | 53.60083 | 9.92829 | 670 ft | 126 kts | 53° |
| 2026-05-05 13:03 | 53.60643 | 9.93966 | 513 ft | 126 kts | 52° |
| 2026-05-05 13:03 | 53.61204 | 9.95101 | 336 ft | 125 kts | 52° |
| 2026-05-05 13:04 | 53.61746 | 9.96213 | 172 ft | 122 kts | 50° |
| 2026-05-05 13:04 | 53.62278 | 9.97284 | 62 ft | 111 kts | 51° |
| 2026-05-05 13:04 | 53.62598 | 9.97934 | 62 ft | 44 kts | 50° |
| 2026-05-05 13:04 | 53.62839 | 9.98424 | 62 ft | 69 kts | 50° |
| 2026-05-05 13:05 | 53.63059 | 9.98878 | 62 ft | 19 kts | 57° |
| 2026-05-05 13:05 | 53.63092 | 9.99046 | 62 ft | 13 kts | 88° |
| 2026-05-05 13:05 | 53.63089 | 9.99184 | 62 ft | 8 kts | 95° |
| 2026-05-05 13:05 | 53.63087 | 9.99234 | 62 ft | 4 kts | 93° |
| 2026-05-05 13:06 | 53.63086 | 9.99298 | 62 ft | 6 kts | 87° |
| 2026-05-05 13:06 | 53.63098 | 9.99374 | 62 ft | 7 kts | 65° |
| 2026-05-05 13:06 | 53.63136 | 9.99477 | 62 ft | 12 kts | 56° |
| 2026-05-05 13:06 | 53.63186 | 9.99596 | 62 ft | 12 kts | 54° |
| 2026-05-05 13:07 | 53.63247 | 9.99711 | 62 ft | 13 kts | 40° |
| 2026-05-05 13:07 | 53.63314 | 9.99823 | 62 ft | 13 kts | 51° |
| 2026-05-05 13:07 | 53.63375 | 9.99950 | 62 ft | 12 kts | 50° |
| 2026-05-05 13:07 | 53.63423 | 10.00047 | 62 ft | 7 kts | 53° |
| 2026-05-05 13:08 | 53.63431 | 10.00131 | 62 ft | 8 kts | 120° |
| 2026-05-05 13:08 | 53.63410 | 10.00216 | 62 ft | 8 kts | 94° |
| 2026-05-05 13:08 | 53.63413 | 10.00294 | 62 ft | 6 kts | 84° |
| 2026-05-05 13:08 | 53.63416 | 10.00350 | 62 ft | 0 kts | 84° |
| 2026-05-05 13:09 | 53.63416 | 10.00353 | 62 ft | 0 kts | 86° |